createdAt,value
2017-07-25T00:02:05.754Z,48.00
2017-07-25T00:04:33.415Z,47.60
2017-07-25T00:07:01.663Z,48.00
2017-07-25T00:09:29.218Z,47.60
2017-07-25T00:11:56.830Z,48.10
2017-07-25T00:14:24.390Z,48.00
2017-07-25T00:16:51.974Z,47.90
2017-07-25T00:19:19.566Z,47.90
2017-07-25T00:21:47.120Z,47.90
2017-07-25T00:24:14.678Z,47.80
2017-07-25T00:26:42.290Z,47.80
2017-07-25T00:29:09.854Z,47.90
2017-07-25T00:31:38.206Z,47.80
2017-07-25T00:34:08.161Z,47.80
2017-07-25T00:36:36.870Z,47.20
2017-07-25T00:39:04.728Z,47.80
2017-07-25T00:41:34.061Z,47.70
2017-07-25T00:44:02.650Z,47.90
2017-07-25T00:46:31.233Z,47.90
2017-07-25T00:49:01.648Z,48.00
2017-07-25T00:51:31.248Z,48.00
2017-07-25T00:53:59.729Z,48.00
2017-07-25T00:56:27.942Z,48.00
2017-07-25T00:58:57.197Z,47.90
2017-07-25T01:01:25.776Z,48.00
2017-07-25T01:03:54.664Z,48.00
2017-07-25T01:06:22.695Z,48.00
2017-07-25T01:08:50.262Z,48.00
2017-07-25T01:11:17.865Z,48.00
2017-07-25T01:13:45.454Z,47.90
2017-07-25T01:16:13.042Z,48.00
2017-07-25T01:18:41.382Z,48.00
2017-07-25T01:21:08.979Z,48.10
2017-07-25T01:23:36.570Z,48.10
2017-07-25T01:26:04.674Z,48.30
2017-07-25T01:28:32.239Z,48.20
2017-07-25T01:30:59.849Z,48.20
2017-07-25T01:33:27.681Z,48.30
2017-07-25T01:35:55.283Z,48.40
2017-07-25T01:38:22.862Z,48.50
2017-07-25T01:40:50.470Z,48.50
2017-07-25T01:43:20.003Z,48.50
2017-07-25T01:45:47.610Z,48.50
2017-07-25T01:48:15.242Z,48.50
2017-07-25T01:50:42.854Z,48.50
2017-07-25T01:53:10.448Z,48.60
2017-07-25T01:55:38.102Z,48.60
2017-07-25T01:58:05.987Z,48.50
2017-07-25T02:00:33.650Z,48.00
2017-07-25T02:03:01.354Z,48.50
2017-07-25T02:05:28.971Z,48.30
2017-07-25T02:07:56.742Z,48.30
2017-07-25T02:10:24.329Z,47.70
2017-07-25T02:12:52.697Z,48.20
2017-07-25T02:15:21.185Z,47.60
2017-07-25T02:17:49.558Z,48.40
2017-07-25T02:20:17.122Z,48.10
2017-07-25T02:22:44.726Z,48.10
2017-07-25T02:25:13.081Z,48.20
2017-07-25T02:27:41.433Z,48.20
2017-07-25T02:30:09.022Z,48.10
2017-07-25T02:32:36.629Z,48.30
2017-07-25T02:35:04.193Z,48.30
2017-07-25T02:37:31.758Z,48.30
2017-07-25T02:39:59.346Z,48.40
2017-07-25T02:42:26.911Z,48.50
2017-07-25T02:44:54.503Z,48.50
2017-07-25T02:47:22.122Z,48.50
2017-07-25T02:49:49.699Z,48.60
2017-07-25T02:52:18.050Z,48.80
2017-07-25T02:54:45.675Z,48.70
2017-07-25T02:57:13.266Z,48.80
2017-07-25T02:59:40.860Z,48.90
2017-07-25T03:02:08.462Z,49.00
2017-07-25T03:04:36.054Z,48.80
2017-07-25T03:07:03.653Z,49.10
2017-07-25T03:09:31.274Z,49.20
2017-07-25T03:11:59.334Z,49.10
2017-07-25T03:14:26.910Z,49.20
2017-07-25T03:16:54.502Z,49.20
2017-07-25T03:19:22.093Z,49.20
2017-07-25T03:21:49.691Z,49.20
2017-07-25T03:24:18.086Z,49.00
2017-07-25T03:26:45.658Z,49.00
2017-07-25T03:29:13.258Z,48.90
2017-07-25T03:31:40.858Z,48.70
2017-07-25T03:34:08.455Z,48.60
2017-07-25T03:36:36.026Z,48.50
2017-07-25T03:39:03.690Z,48.40
2017-07-25T03:41:31.249Z,48.50
2017-07-25T03:43:58.806Z,48.40
2017-07-25T03:46:26.762Z,48.40
2017-07-25T03:48:54.351Z,48.40
2017-07-25T03:51:21.950Z,48.50
2017-07-25T03:53:50.326Z,48.50
2017-07-25T03:56:18.670Z,48.50
2017-07-25T03:58:46.238Z,48.40
2017-07-25T04:01:13.850Z,48.20
2017-07-25T04:03:41.418Z,48.20
2017-07-25T04:06:08.990Z,48.20
2017-07-25T04:08:36.578Z,48.20
2017-07-25T04:11:04.138Z,48.20
2017-07-25T04:13:31.866Z,48.30
2017-07-25T04:15:59.450Z,48.40
2017-07-25T04:18:27.011Z,48.40
2017-07-25T04:20:54.782Z,48.40
2017-07-25T04:23:22.399Z,47.90
2017-07-25T04:25:50.718Z,48.40
2017-07-25T04:28:18.281Z,47.90
2017-07-25T04:30:45.911Z,48.40
2017-07-25T04:33:13.815Z,48.40
2017-07-25T04:35:41.386Z,48.40
2017-07-25T04:38:08.978Z,48.40
2017-07-25T04:40:36.533Z,48.50
2017-07-25T04:43:04.123Z,48.40
2017-07-25T04:45:31.714Z,48.40
2017-07-25T04:47:59.278Z,48.40
2017-07-25T04:50:26.851Z,48.40
2017-07-25T04:52:54.438Z,48.40
2017-07-25T04:55:22.026Z,48.30
2017-07-25T04:57:49.591Z,48.30
2017-07-25T05:00:17.933Z,48.40
2017-07-25T05:02:45.523Z,48.60
2017-07-25T05:05:13.119Z,48.50
2017-07-25T05:07:41.482Z,48.60
2017-07-25T05:10:09.069Z,48.60
2017-07-25T05:12:36.637Z,48.40
2017-07-25T05:15:04.254Z,48.40
2017-07-25T05:17:31.886Z,48.20
2017-07-25T05:19:59.522Z,48.20
2017-07-25T05:22:27.126Z,48.40
2017-07-25T05:24:54.686Z,48.30
2017-07-25T05:27:22.250Z,48.50
2017-07-25T05:29:49.843Z,49.00
2017-07-25T05:32:17.430Z,49.10
2017-07-25T05:34:45.002Z,49.20
2017-07-25T05:37:12.600Z,49.30
2017-07-25T05:39:40.191Z,49.10
2017-07-25T05:42:07.762Z,48.80
2017-07-25T05:44:35.379Z,48.40
2017-07-25T05:47:02.969Z,48.20
2017-07-25T05:49:30.561Z,48.00
2017-07-25T05:51:58.178Z,47.70
2017-07-25T05:54:25.745Z,47.60
2017-07-25T05:56:53.306Z,47.50
2017-07-25T05:59:20.922Z,47.50
2017-07-25T06:01:48.482Z,47.50
2017-07-25T06:04:16.077Z,47.50
2017-07-25T06:06:43.698Z,47.40
2017-07-25T06:09:11.282Z,47.50
2017-07-25T06:11:38.846Z,47.30
2017-07-25T06:14:06.469Z,47.30
2017-07-25T06:16:34.033Z,47.00
2017-07-25T06:19:01.622Z,46.90
2017-07-25T06:21:29.215Z,46.90
2017-07-25T06:23:56.802Z,47.00
2017-07-25T06:26:24.395Z,47.10
2017-07-25T06:28:52.772Z,47.40
2017-07-25T06:31:21.394Z,47.10
2017-07-25T06:33:48.984Z,47.70
2017-07-25T06:36:16.602Z,48.00
2017-07-25T06:38:44.190Z,48.00
2017-07-25T06:41:11.786Z,47.80
2017-07-25T06:43:39.383Z,47.70
2017-07-25T06:46:07.774Z,47.60
2017-07-25T06:48:35.465Z,47.40
2017-07-25T06:51:03.078Z,46.70
2017-07-25T06:53:31.430Z,47.30
2017-07-25T06:55:59.018Z,46.70
2017-07-25T06:58:27.370Z,47.20
2017-07-25T07:00:54.959Z,46.50
2017-07-25T07:03:22.518Z,47.00
2017-07-25T07:05:51.141Z,46.90
2017-07-25T07:08:18.739Z,47.00
2017-07-25T07:10:46.310Z,46.80
2017-07-25T07:13:13.902Z,46.60
2017-07-25T07:15:41.486Z,46.40
2017-07-25T07:18:09.094Z,45.90
2017-07-25T07:23:05.621Z,45.40
2017-07-25T07:25:33.210Z,45.30
2017-07-25T07:28:00.826Z,45.30
2017-07-25T07:30:28.390Z,45.20
2017-07-25T07:32:55.950Z,45.20
2017-07-25T07:35:23.570Z,44.90
2017-07-25T07:37:51.174Z,44.30
2017-07-25T07:40:18.733Z,44.30
2017-07-25T07:42:46.626Z,44.30
2017-07-25T07:45:15.350Z,44.30
2017-07-25T07:47:42.943Z,44.10
2017-07-25T07:50:10.558Z,44.00
2017-07-25T07:52:38.142Z,43.90
2017-07-25T07:55:05.726Z,44.10
2017-07-25T07:57:33.386Z,44.50
2017-07-25T08:00:00.978Z,44.70
2017-07-25T08:02:29.910Z,44.60
2017-07-25T08:04:57.526Z,44.50
2017-07-25T08:07:25.118Z,44.50
2017-07-25T08:09:52.695Z,44.50
2017-07-25T08:12:20.306Z,44.50
2017-07-25T08:14:48.658Z,43.80
2017-07-25T08:17:16.251Z,43.80
2017-07-25T08:19:43.847Z,43.40
2017-07-25T08:22:12.141Z,43.40
2017-07-25T08:24:39.742Z,43.30
2017-07-25T08:27:07.344Z,42.70
2017-07-25T08:29:34.930Z,42.20
2017-07-25T08:32:02.491Z,40.60
2017-07-25T08:34:30.335Z,39.80
2017-07-25T08:36:57.910Z,40.20
2017-07-25T08:39:25.474Z,39.90
2017-07-25T08:41:53.377Z,39.80
2017-07-25T08:44:20.981Z,39.20
2017-07-25T08:46:48.775Z,37.00
2017-07-25T08:49:17.295Z,34.10
2017-07-25T08:51:44.862Z,34.60
2017-07-25T08:54:12.654Z,35.80
2017-07-25T08:56:40.290Z,36.00
2017-07-25T08:59:07.878Z,33.70
2017-07-25T09:01:35.492Z,32.90
2017-07-25T09:04:03.112Z,32.70
2017-07-25T09:06:30.686Z,32.60
2017-07-25T09:08:58.274Z,32.30
2017-07-25T09:11:26.328Z,32.00
2017-07-25T09:13:53.926Z,32.40
2017-07-25T09:16:21.522Z,33.00
2017-07-25T09:18:49.138Z,32.90
2017-07-25T09:21:16.743Z,33.20
2017-07-25T09:23:52.771Z,33.10
2017-07-25T09:26:20.354Z,32.30
2017-07-25T09:28:47.947Z,33.10
2017-07-25T09:31:15.582Z,32.80
2017-07-25T09:33:43.162Z,32.90
2017-07-25T09:36:10.788Z,33.30
2017-07-25T09:38:38.394Z,33.70
2017-07-25T09:41:05.950Z,34.00
2017-07-25T09:43:33.587Z,34.50
2017-07-25T09:46:01.178Z,35.20
2017-07-25T09:48:29.501Z,35.50
2017-07-25T09:50:57.086Z,35.20
2017-07-25T09:53:24.711Z,35.90
2017-07-25T09:55:52.278Z,36.10
2017-07-25T09:58:20.374Z,36.30
2017-07-25T10:00:48.034Z,36.00
2017-07-25T10:03:15.626Z,36.70
2017-07-25T10:05:43.214Z,36.90
2017-07-25T10:08:11.229Z,37.10
2017-07-25T10:10:38.815Z,36.80
2017-07-25T10:13:06.410Z,37.40
2017-07-25T10:15:34.002Z,37.60
2017-07-25T10:18:01.567Z,37.70
2017-07-25T10:20:29.722Z,37.80
2017-07-25T10:22:57.319Z,38.00
2017-07-25T10:25:24.881Z,38.10
2017-07-25T10:27:52.444Z,38.20
2017-07-25T10:30:20.034Z,38.40
2017-07-25T10:32:47.601Z,38.50
2017-07-25T10:35:15.166Z,38.50
2017-07-25T10:37:42.778Z,38.70
2017-07-25T10:40:11.110Z,38.80
2017-07-25T10:42:38.678Z,38.80
2017-07-25T10:45:07.191Z,38.90
2017-07-25T10:47:35.523Z,39.10
